VOZ2930 YPPH-YIBO
Flight info
| Callsign | VOZ2930 |
|---|---|
| Flight time | 1h 43m |
| Altitude | 35000 |
| Route | PH Y15 ESDEG Y60 GUVNA |
| Aircraft | A320/M-SDE3FGHIRWY/LB1 |
Departure
| Time | 2026-04-21 21:43 |
|---|---|
| Airport | Perth International Airport (YPPH) |
Arrival
| Time | 2026-04-21 23:26 |
|---|---|
| Airport | Iron Bridge Mine Airport (YIBO) |
| Time | Latitude | Longitude | Altitude | Speed | Heading |
|---|---|---|---|---|---|
| 2026-04-21 21:11 | -31.94149 | 115.97013 | 62 ft | 0 kts | 13° |
| 2026-04-21 21:13 | -31.93465 | 115.96147 | 67 ft | 0 kts | 297° |
| 2026-04-21 21:29 | -31.93466 | 115.96151 | 67 ft | 2 kts | 297° |
| 2026-04-21 21:29 | -31.93474 | 115.96166 | 66 ft | 2 kts | 298° |
| 2026-04-21 21:29 | -31.93481 | 115.96182 | 66 ft | 2 kts | 298° |
| 2026-04-21 21:29 | -31.93488 | 115.96197 | 66 ft | 2 kts | 298° |
| 2026-04-21 21:30 | -31.93495 | 115.96212 | 65 ft | 2 kts | 298° |
| 2026-04-21 21:30 | -31.93500 | 115.96224 | 65 ft | 2 kts | 277° |
| 2026-04-21 21:30 | -31.93498 | 115.96242 | 65 ft | 2 kts | 238° |
| 2026-04-21 21:30 | -31.93487 | 115.96253 | 64 ft | 2 kts | 202° |
| 2026-04-21 21:31 | -31.93476 | 115.96259 | 64 ft | 0 kts | 211° |
| 2026-04-21 21:31 | -31.93475 | 115.96260 | 64 ft | 0 kts | 212° |
| 2026-04-21 21:35 | -31.93476 | 115.96259 | 64 ft | 2 kts | 212° |
| 2026-04-21 21:35 | -31.93538 | 115.96216 | 65 ft | 16 kts | 207° |
| 2026-04-21 21:35 | -31.93668 | 115.96178 | 60 ft | 21 kts | 179° |
| 2026-04-21 21:36 | -31.93822 | 115.96210 | 59 ft | 21 kts | 168° |
| 2026-04-21 21:36 | -31.93962 | 115.96248 | 64 ft | 19 kts | 167° |
| 2026-04-21 21:36 | -31.94090 | 115.96251 | 66 ft | 18 kts | 193° |
| 2026-04-21 21:36 | -31.94218 | 115.96215 | 67 ft | 19 kts | 193° |
| 2026-04-21 21:37 | -31.94365 | 115.96173 | 70 ft | 24 kts | 196° |
| 2026-04-21 21:37 | -31.94545 | 115.96121 | 70 ft | 29 kts | 193° |
| 2026-04-21 21:37 | -31.94764 | 115.96056 | 68 ft | 33 kts | 194° |
| 2026-04-21 21:37 | -31.94987 | 115.95992 | 67 ft | 32 kts | 193° |
| 2026-04-21 21:38 | -31.95195 | 115.95931 | 68 ft | 30 kts | 194° |
| 2026-04-21 21:38 | -31.95396 | 115.95872 | 74 ft | 31 kts | 195° |
| 2026-04-21 21:38 | -31.95602 | 115.95811 | 81 ft | 28 kts | 194° |
| 2026-04-21 21:38 | -31.95752 | 115.95768 | 82 ft | 18 kts | 193° |
| 2026-04-21 21:39 | -31.95831 | 115.95837 | 79 ft | 11 kts | 109° |
| 2026-04-21 21:39 | -31.95835 | 115.95849 | 79 ft | 0 kts | 109° |
| 2026-04-21 21:41 | -31.95839 | 115.95862 | 78 ft | 4 kts | 108° |
| 2026-04-21 21:41 | -31.95845 | 115.95913 | 77 ft | 8 kts | 83° |
| 2026-04-21 21:41 | -31.95813 | 115.95978 | 76 ft | 10 kts | 38° |
| 2026-04-21 21:42 | -31.95770 | 115.95998 | 78 ft | 0 kts | 15° |
| 2026-04-21 21:42 | -31.95767 | 115.95999 | 78 ft | 4 kts | 15° |
| 2026-04-21 21:42 | -31.95474 | 115.96089 | 75 ft | 83 kts | 13° |
| 2026-04-21 21:42 | -31.94672 | 115.96329 | 66 ft | 150 kts | 13° |
| 2026-04-21 21:43 | -31.93559 | 115.96641 | 458 ft | 173 kts | 15° |
| 2026-04-21 21:43 | -31.92364 | 115.96982 | 1234 ft | 180 kts | 16° |
| 2026-04-21 21:43 | -31.91178 | 115.97312 | 2206 ft | 176 kts | 14° |
| 2026-04-21 21:43 | -31.89996 | 115.97611 | 2808 ft | 181 kts | 15° |
| 2026-04-21 21:44 | -31.88710 | 115.98003 | 3208 ft | 198 kts | 15° |
| 2026-04-21 21:44 | -31.87312 | 115.98431 | 3569 ft | 219 kts | 14° |
| 2026-04-21 21:44 | -31.85791 | 115.98885 | 4038 ft | 235 kts | 14° |
| 2026-04-21 21:44 | -31.84136 | 115.99372 | 4595 ft | 250 kts | 13° |
| 2026-04-21 21:45 | -31.82451 | 115.99864 | 5379 ft | 254 kts | 13° |
| 2026-04-21 21:45 | -31.80719 | 116.00370 | 6193 ft | 258 kts | 12° |
| 2026-04-21 21:45 | -31.78962 | 116.00800 | 7001 ft | 260 kts | 4° |
| 2026-04-21 21:45 | -31.77174 | 116.00851 | 7783 ft | 261 kts | 353° |
| 2026-04-21 21:46 | -31.75362 | 116.00611 | 8552 ft | 264 kts | 350° |
| 2026-04-21 21:46 | -31.73532 | 116.00324 | 9265 ft | 267 kts | 349° |
| 2026-04-21 21:46 | -31.71688 | 116.00030 | 9959 ft | 270 kts | 349° |
| 2026-04-21 21:46 | -31.69812 | 115.99731 | 10559 ft | 277 kts | 349° |
| 2026-04-21 21:47 | -31.67863 | 115.99418 | 10864 ft | 294 kts | 349° |
| 2026-04-21 21:47 | -31.65772 | 115.99085 | 11150 ft | 310 kts | 349° |
| 2026-04-21 21:47 | -31.63572 | 115.98740 | 11433 ft | 325 kts | 349° |
| 2026-04-21 21:47 | -31.61304 | 115.98386 | 11907 ft | 332 kts | 349° |
| 2026-04-21 21:48 | -31.59022 | 115.98035 | 12527 ft | 334 kts | 349° |
| 2026-04-21 21:48 | -31.56728 | 115.97681 | 13112 ft | 336 kts | 349° |
| 2026-04-21 21:48 | -31.54393 | 115.97320 | 13673 ft | 339 kts | 349° |
| 2026-04-21 21:48 | -31.52049 | 115.96956 | 14218 ft | 342 kts | 349° |
| 2026-04-21 21:49 | -31.49685 | 115.96588 | 14769 ft | 345 kts | 349° |
| 2026-04-21 21:49 | -31.47281 | 115.96217 | 15307 ft | 347 kts | 348° |
| 2026-04-21 21:49 | -31.44895 | 115.95847 | 15806 ft | 350 kts | 348° |
| 2026-04-21 21:49 | -31.42453 | 115.95470 | 16345 ft | 352 kts | 348° |
| 2026-04-21 21:50 | -31.40033 | 115.95094 | 16841 ft | 355 kts | 348° |
| 2026-04-21 21:50 | -31.37593 | 115.94716 | 17317 ft | 357 kts | 348° |
| 2026-04-21 21:50 | -31.35105 | 115.94331 | 17813 ft | 359 kts | 348° |
| 2026-04-21 21:50 | -31.32640 | 115.93951 | 18306 ft | 361 kts | 348° |
| 2026-04-21 21:51 | -31.30115 | 115.93561 | 18779 ft | 363 kts | 348° |
| 2026-04-21 21:51 | -31.27613 | 115.93175 | 19228 ft | 365 kts | 347° |
| 2026-04-21 21:51 | -31.25104 | 115.92787 | 19675 ft | 367 kts | 347° |
| 2026-04-21 21:51 | -31.22573 | 115.92396 | 20102 ft | 369 kts | 347° |
| 2026-04-21 21:52 | -31.19996 | 115.91997 | 20531 ft | 372 kts | 347° |
| 2026-04-21 21:52 | -31.17427 | 115.91602 | 20928 ft | 374 kts | 347° |
| 2026-04-21 21:52 | -31.14818 | 115.91200 | 21303 ft | 377 kts | 347° |
| 2026-04-21 21:52 | -31.12220 | 115.90800 | 21712 ft | 379 kts | 347° |
| 2026-04-21 21:53 | -31.09614 | 115.90398 | 22092 ft | 381 kts | 347° |
| 2026-04-21 21:53 | -31.06986 | 115.89995 | 22449 ft | 383 kts | 347° |
| 2026-04-21 21:53 | -31.04326 | 115.89585 | 22814 ft | 385 kts | 347° |
| 2026-04-21 21:53 | -31.01656 | 115.89175 | 23190 ft | 387 kts | 346° |
| 2026-04-21 21:54 | -30.99004 | 115.88766 | 23555 ft | 389 kts | 346° |
| 2026-04-21 21:54 | -30.96300 | 115.88350 | 23918 ft | 390 kts | 346° |
| 2026-04-21 21:54 | -30.93616 | 115.87936 | 24261 ft | 392 kts | 346° |
| 2026-04-21 21:54 | -30.90871 | 115.87515 | 24597 ft | 395 kts | 346° |
| 2026-04-21 21:55 | -30.88150 | 115.87099 | 24937 ft | 397 kts | 346° |
| 2026-04-21 21:55 | -30.85400 | 115.86678 | 25272 ft | 400 kts | 347° |
| 2026-04-21 21:55 | -30.82636 | 115.86392 | 25583 ft | 405 kts | 350° |
| 2026-04-21 21:55 | -30.79785 | 115.86325 | 25889 ft | 411 kts | 354° |
| 2026-04-21 21:56 | -30.76903 | 115.86491 | 26203 ft | 416 kts | 358° |
| 2026-04-21 21:56 | -30.74001 | 115.86781 | 26531 ft | 418 kts | 358° |
| 2026-04-21 21:56 | -30.71094 | 115.87081 | 26843 ft | 420 kts | 358° |
| 2026-04-21 21:56 | -30.68175 | 115.87386 | 27139 ft | 422 kts | 358° |
| 2026-04-21 21:57 | -30.65240 | 115.87689 | 27437 ft | 424 kts | 358° |
| 2026-04-21 21:57 | -30.62291 | 115.87994 | 27706 ft | 427 kts | 358° |
| 2026-04-21 21:57 | -30.59320 | 115.88301 | 27962 ft | 429 kts | 358° |
| 2026-04-21 21:57 | -30.56343 | 115.88608 | 28229 ft | 431 kts | 358° |
| 2026-04-21 21:58 | -30.53364 | 115.88915 | 28491 ft | 433 kts | 358° |
| 2026-04-21 21:58 | -30.50366 | 115.89223 | 28738 ft | 435 kts | 358° |
| 2026-04-21 21:58 | -30.47310 | 115.89537 | 28983 ft | 438 kts | 358° |
| 2026-04-21 21:58 | -30.44282 | 115.89848 | 29217 ft | 439 kts | 358° |
| 2026-04-21 21:59 | -30.41247 | 115.90160 | 29495 ft | 440 kts | 358° |
| 2026-04-21 21:59 | -30.38174 | 115.90478 | 29856 ft | 438 kts | 358° |
| 2026-04-21 21:59 | -30.35165 | 115.90788 | 30204 ft | 437 kts | 358° |
| 2026-04-21 21:59 | -30.32112 | 115.91102 | 30525 ft | 436 kts | 358° |
| 2026-04-21 22:00 | -30.29107 | 115.91410 | 30836 ft | 435 kts | 358° |
| 2026-04-21 22:00 | -30.26102 | 115.91718 | 31146 ft | 435 kts | 358° |
| 2026-04-21 22:00 | -30.23102 | 115.92025 | 31446 ft | 434 kts | 358° |
| 2026-04-21 22:00 | -30.20059 | 115.92335 | 31735 ft | 433 kts | 357° |
| 2026-04-21 22:01 | -30.17073 | 115.92641 | 32024 ft | 433 kts | 357° |
| 2026-04-21 22:01 | -30.14080 | 115.92946 | 32279 ft | 433 kts | 357° |
| 2026-04-21 22:01 | -30.11090 | 115.93250 | 32549 ft | 433 kts | 357° |
| 2026-04-21 22:01 | -30.08104 | 115.93554 | 32824 ft | 432 kts | 357° |
| 2026-04-21 22:02 | -30.05084 | 115.93862 | 33102 ft | 431 kts | 357° |
| 2026-04-21 22:02 | -30.02102 | 115.94165 | 33357 ft | 431 kts | 356° |
| 2026-04-21 22:02 | -29.99114 | 115.94469 | 33570 ft | 431 kts | 356° |
| 2026-04-21 22:02 | -29.96132 | 115.94769 | 33785 ft | 432 kts | 356° |
| 2026-04-21 22:03 | -29.93134 | 115.95072 | 34059 ft | 432 kts | 356° |
| 2026-04-21 22:03 | -29.90132 | 115.95377 | 34309 ft | 431 kts | 357° |
| 2026-04-21 22:03 | -29.87139 | 115.95680 | 34542 ft | 431 kts | 356° |
| 2026-04-21 22:03 | -29.84145 | 115.95984 | 34765 ft | 431 kts | 356° |
| 2026-04-21 22:04 | -29.81150 | 115.96287 | 34923 ft | 433 kts | 357° |
| 2026-04-21 22:04 | -29.78159 | 115.96588 | 35068 ft | 434 kts | 357° |
| 2026-04-21 22:04 | -29.75137 | 115.96893 | 35071 ft | 434 kts | 357° |
| 2026-04-21 22:05 | -29.69147 | 115.97500 | 35074 ft | 435 kts | 357° |
| 2026-04-21 22:05 | -29.63118 | 115.98108 | 35077 ft | 434 kts | 357° |
| 2026-04-21 22:06 | -29.57091 | 115.98716 | 35078 ft | 434 kts | 357° |
| 2026-04-21 22:06 | -29.51057 | 115.99325 | 35078 ft | 434 kts | 357° |
| 2026-04-21 22:07 | -29.45045 | 115.99928 | 35078 ft | 435 kts | 357° |
| 2026-04-21 22:07 | -29.39017 | 116.00533 | 35077 ft | 435 kts | 357° |
| 2026-04-21 22:08 | -29.32974 | 116.01138 | 35078 ft | 435 kts | 357° |
| 2026-04-21 22:08 | -29.26950 | 116.01865 | 35078 ft | 439 kts | 1° |
| 2026-04-21 22:09 | -29.20929 | 116.03265 | 35079 ft | 446 kts | 7° |
| 2026-04-21 22:09 | -29.14962 | 116.05437 | 35079 ft | 452 kts | 13° |
| 2026-04-21 22:10 | -29.09161 | 116.08274 | 35080 ft | 455 kts | 16° |
| 2026-04-21 22:10 | -29.03355 | 116.11230 | 35082 ft | 456 kts | 16° |
| 2026-04-21 22:11 | -28.97555 | 116.14171 | 35080 ft | 456 kts | 16° |
| 2026-04-21 22:11 | -28.91797 | 116.17086 | 35080 ft | 454 kts | 16° |
| 2026-04-21 22:12 | -28.85998 | 116.20016 | 35079 ft | 454 kts | 16° |
| 2026-04-21 22:12 | -28.80194 | 116.22942 | 35075 ft | 456 kts | 16° |
| 2026-04-21 22:13 | -28.74388 | 116.25867 | 35074 ft | 456 kts | 16° |
| 2026-04-21 22:13 | -28.68603 | 116.28778 | 35072 ft | 456 kts | 16° |
| 2026-04-21 22:14 | -28.62812 | 116.31690 | 35070 ft | 455 kts | 16° |
| 2026-04-21 22:14 | -28.57031 | 116.34593 | 35069 ft | 454 kts | 16° |
| 2026-04-21 22:15 | -28.51220 | 116.37505 | 35065 ft | 455 kts | 16° |
| 2026-04-21 22:15 | -28.45418 | 116.40408 | 35067 ft | 456 kts | 16° |
| 2026-04-21 22:16 | -28.39642 | 116.43299 | 35060 ft | 456 kts | 16° |
| 2026-04-21 22:16 | -28.33837 | 116.46201 | 35058 ft | 455 kts | 16° |
| 2026-04-21 22:17 | -28.28053 | 116.49085 | 35057 ft | 454 kts | 16° |
| 2026-04-21 22:17 | -28.22277 | 116.51962 | 35057 ft | 454 kts | 16° |
| 2026-04-21 22:18 | -28.16489 | 116.54846 | 35054 ft | 454 kts | 16° |
| 2026-04-21 22:18 | -28.10678 | 116.57734 | 35049 ft | 454 kts | 16° |
| 2026-04-21 22:19 | -28.04910 | 116.60597 | 35051 ft | 455 kts | 16° |
| 2026-04-21 22:19 | -27.99130 | 116.63467 | 35050 ft | 452 kts | 16° |
| 2026-04-21 22:20 | -27.93362 | 116.66323 | 35046 ft | 455 kts | 15° |
| 2026-04-21 22:20 | -27.87550 | 116.69199 | 35041 ft | 453 kts | 15° |
| 2026-04-21 22:21 | -27.81768 | 116.72058 | 35048 ft | 453 kts | 16° |
| 2026-04-21 22:21 | -27.76022 | 116.74894 | 35039 ft | 454 kts | 16° |
| 2026-04-21 22:22 | -27.70191 | 116.77770 | 35040 ft | 454 kts | 15° |
| 2026-04-21 22:22 | -27.64433 | 116.80608 | 35039 ft | 454 kts | 15° |
| 2026-04-21 22:23 | -27.58634 | 116.83459 | 35036 ft | 455 kts | 15° |
| 2026-04-21 22:23 | -27.52794 | 116.86326 | 35034 ft | 456 kts | 16° |
| 2026-04-21 22:24 | -27.46977 | 116.89182 | 35032 ft | 457 kts | 15° |
| 2026-04-21 22:24 | -27.41181 | 116.92025 | 35035 ft | 456 kts | 15° |
| 2026-04-21 22:25 | -27.35357 | 116.94877 | 35037 ft | 457 kts | 15° |
| 2026-04-21 22:25 | -27.29513 | 116.97735 | 35039 ft | 456 kts | 15° |
| 2026-04-21 22:26 | -27.23707 | 117.00571 | 35039 ft | 457 kts | 15° |
| 2026-04-21 22:26 | -27.17884 | 117.03412 | 35046 ft | 457 kts | 15° |
| 2026-04-21 22:27 | -27.12022 | 117.06270 | 35055 ft | 457 kts | 15° |
| 2026-04-21 22:27 | -27.06190 | 117.09109 | 35058 ft | 458 kts | 15° |
| 2026-04-21 22:28 | -27.00347 | 117.11952 | 35059 ft | 457 kts | 15° |
| 2026-04-21 22:28 | -26.94503 | 117.14787 | 35060 ft | 459 kts | 15° |
| 2026-04-21 22:29 | -26.88669 | 117.17620 | 35061 ft | 459 kts | 15° |
| 2026-04-21 22:29 | -26.82791 | 117.20471 | 35061 ft | 457 kts | 15° |
| 2026-04-21 22:30 | -26.76934 | 117.23304 | 35063 ft | 458 kts | 15° |
| 2026-04-21 22:30 | -26.71084 | 117.26133 | 35062 ft | 460 kts | 15° |
| 2026-04-21 22:31 | -26.65225 | 117.28962 | 35061 ft | 460 kts | 15° |
| 2026-04-21 22:31 | -26.59317 | 117.31814 | 35060 ft | 460 kts | 15° |
| 2026-04-21 22:32 | -26.53443 | 117.34647 | 35055 ft | 461 kts | 15° |
| 2026-04-21 22:32 | -26.47581 | 117.37469 | 35052 ft | 460 kts | 15° |
| 2026-04-21 22:33 | -26.41681 | 117.40303 | 35051 ft | 463 kts | 15° |
| 2026-04-21 22:33 | -26.35765 | 117.43147 | 35046 ft | 461 kts | 15° |
| 2026-04-21 22:34 | -26.29870 | 117.45975 | 35047 ft | 462 kts | 15° |
| 2026-04-21 22:34 | -26.23975 | 117.48798 | 35046 ft | 462 kts | 15° |
| 2026-04-21 22:35 | -26.18058 | 117.51632 | 35044 ft | 462 kts | 14° |
| 2026-04-21 22:35 | -26.12109 | 117.54366 | 35041 ft | 459 kts | 11° |
| 2026-04-21 22:36 | -26.03070 | 117.57828 | 35032 ft | 459 kts | 10° |
| 2026-04-21 22:36 | -25.97006 | 117.60129 | 35024 ft | 459 kts | 10° |
| 2026-04-21 22:37 | -25.90990 | 117.62412 | 35029 ft | 459 kts | 10° |
| 2026-04-21 22:37 | -25.84917 | 117.64719 | 35027 ft | 460 kts | 10° |
| 2026-04-21 22:38 | -25.78898 | 117.67002 | 35030 ft | 458 kts | 9° |
| 2026-04-21 22:38 | -25.72856 | 117.69291 | 35026 ft | 458 kts | 9° |
| 2026-04-21 22:39 | -25.66831 | 117.71571 | 35040 ft | 458 kts | 9° |
| 2026-04-21 22:39 | -25.60782 | 117.73856 | 35036 ft | 458 kts | 9° |
| 2026-04-21 22:40 | -25.54737 | 117.76138 | 35040 ft | 459 kts | 9° |
| 2026-04-21 22:40 | -25.48690 | 117.78421 | 35039 ft | 458 kts | 9° |
| 2026-04-21 22:41 | -25.42641 | 117.80697 | 35040 ft | 459 kts | 9° |
| 2026-04-21 22:41 | -25.36607 | 117.82971 | 35042 ft | 459 kts | 9° |
| 2026-04-21 22:42 | -25.30538 | 117.85252 | 35046 ft | 460 kts | 9° |
| 2026-04-21 22:42 | -25.24496 | 117.87521 | 35045 ft | 459 kts | 9° |
| 2026-04-21 22:43 | -25.18446 | 117.89790 | 35043 ft | 460 kts | 9° |
| 2026-04-21 22:43 | -25.12391 | 117.92061 | 35050 ft | 460 kts | 9° |
| 2026-04-21 22:44 | -25.06321 | 117.94333 | 35054 ft | 461 kts | 9° |
| 2026-04-21 22:44 | -25.00236 | 117.96612 | 35057 ft | 460 kts | 9° |
| 2026-04-21 22:45 | -24.94160 | 117.98881 | 35060 ft | 458 kts | 9° |
| 2026-04-21 22:45 | -24.88106 | 118.01138 | 35057 ft | 459 kts | 9° |
| 2026-04-21 22:46 | -24.82057 | 118.03394 | 35057 ft | 458 kts | 9° |
| 2026-04-21 22:46 | -24.76031 | 118.05637 | 35058 ft | 459 kts | 9° |
| 2026-04-21 22:47 | -24.69957 | 118.07898 | 35051 ft | 459 kts | 9° |
| 2026-04-21 22:47 | -24.63927 | 118.10139 | 35052 ft | 459 kts | 9° |
| 2026-04-21 22:48 | -24.57858 | 118.12392 | 35055 ft | 459 kts | 9° |
| 2026-04-21 22:48 | -24.51795 | 118.14642 | 35049 ft | 460 kts | 9° |
| 2026-04-21 22:49 | -24.45735 | 118.16888 | 35046 ft | 459 kts | 9° |
| 2026-04-21 22:49 | -24.39667 | 118.19135 | 35039 ft | 458 kts | 9° |
| 2026-04-21 22:50 | -24.33643 | 118.21361 | 35038 ft | 459 kts | 9° |
| 2026-04-21 22:50 | -24.27572 | 118.23605 | 35032 ft | 459 kts | 9° |
| 2026-04-21 22:51 | -24.21530 | 118.25834 | 35031 ft | 459 kts | 9° |
| 2026-04-21 22:51 | -24.15426 | 118.28084 | 35028 ft | 461 kts | 9° |
| 2026-04-21 22:52 | -24.09368 | 118.30315 | 35026 ft | 460 kts | 10° |
| 2026-04-21 22:52 | -24.03266 | 118.32560 | 35029 ft | 461 kts | 9° |
| 2026-04-21 22:53 | -23.97220 | 118.34784 | 35030 ft | 460 kts | 9° |
| 2026-04-21 22:53 | -23.91129 | 118.37022 | 35042 ft | 459 kts | 9° |
| 2026-04-21 22:54 | -23.85098 | 118.39234 | 35043 ft | 460 kts | 9° |
| 2026-04-21 22:54 | -23.79027 | 118.41456 | 35050 ft | 460 kts | 9° |
| 2026-04-21 22:55 | -23.72906 | 118.43698 | 35052 ft | 460 kts | 10° |
| 2026-04-21 22:55 | -23.66834 | 118.45917 | 35053 ft | 462 kts | 10° |
| 2026-04-21 22:56 | -23.60763 | 118.48138 | 35060 ft | 461 kts | 9° |
| 2026-04-21 22:56 | -23.54674 | 118.50359 | 35059 ft | 461 kts | 10° |
| 2026-04-21 22:57 | -23.48584 | 118.52580 | 35063 ft | 461 kts | 10° |
| 2026-04-21 22:57 | -23.42473 | 118.54809 | 35061 ft | 462 kts | 10° |
| 2026-04-21 22:58 | -23.36369 | 118.57028 | 35068 ft | 462 kts | 10° |
| 2026-04-21 22:58 | -23.30276 | 118.59244 | 35080 ft | 463 kts | 10° |
| 2026-04-21 22:59 | -23.24161 | 118.61465 | 35092 ft | 463 kts | 10° |
| 2026-04-21 22:59 | -23.18058 | 118.63680 | 35097 ft | 463 kts | 10° |
| 2026-04-21 23:00 | -23.11924 | 118.65899 | 35102 ft | 462 kts | 9° |
| 2026-04-21 23:00 | -23.05736 | 118.67657 | 35116 ft | 455 kts | 2° |
| 2026-04-21 23:01 | -22.99522 | 118.68612 | 34515 ft | 447 kts | 355° |
| 2026-04-21 23:01 | -22.96429 | 118.68796 | 33903 ft | 439 kts | 353° |
| 2026-04-21 23:01 | -22.93403 | 118.68790 | 33220 ft | 433 kts | 350° |
| 2026-04-21 23:02 | -22.90421 | 118.68708 | 32445 ft | 435 kts | 350° |
| 2026-04-21 23:02 | -22.87354 | 118.68617 | 31537 ft | 441 kts | 351° |
| 2026-04-21 23:02 | -22.84271 | 118.68526 | 30623 ft | 446 kts | 352° |
| 2026-04-21 23:02 | -22.81161 | 118.68439 | 29845 ft | 447 kts | 352° |
| 2026-04-21 23:03 | -22.78062 | 118.68357 | 29128 ft | 447 kts | 353° |
| 2026-04-21 23:03 | -22.74946 | 118.68278 | 28401 ft | 446 kts | 353° |
| 2026-04-21 23:03 | -22.71885 | 118.68205 | 27915 ft | 439 kts | 353° |
| 2026-04-21 23:03 | -22.68858 | 118.68132 | 27483 ft | 432 kts | 353° |
| 2026-04-21 23:04 | -22.65861 | 118.68057 | 27055 ft | 429 kts | 354° |
| 2026-04-21 23:04 | -22.62894 | 118.67982 | 26618 ft | 427 kts | 353° |
| 2026-04-21 23:04 | -22.59895 | 118.67906 | 26179 ft | 424 kts | 354° |
| 2026-04-21 23:04 | -22.56988 | 118.67831 | 25686 ft | 421 kts | 354° |
| 2026-04-21 23:05 | -22.54070 | 118.67757 | 25179 ft | 417 kts | 354° |
| 2026-04-21 23:05 | -22.51181 | 118.67682 | 24655 ft | 413 kts | 354° |
| 2026-04-21 23:05 | -22.48287 | 118.67608 | 24132 ft | 410 kts | 354° |
| 2026-04-21 23:05 | -22.45460 | 118.67535 | 23614 ft | 407 kts | 354° |
| 2026-04-21 23:06 | -22.42650 | 118.67463 | 23080 ft | 404 kts | 355° |
| 2026-04-21 23:06 | -22.39823 | 118.67388 | 22518 ft | 402 kts | 355° |
| 2026-04-21 23:06 | -22.37049 | 118.67317 | 21978 ft | 400 kts | 355° |
| 2026-04-21 23:06 | -22.34260 | 118.67247 | 21448 ft | 398 kts | 355° |
| 2026-04-21 23:07 | -22.31481 | 118.67176 | 20900 ft | 396 kts | 355° |
| 2026-04-21 23:07 | -22.28757 | 118.67106 | 20385 ft | 395 kts | 355° |
| 2026-04-21 23:07 | -22.26003 | 118.67036 | 19864 ft | 393 kts | 355° |
| 2026-04-21 23:07 | -22.23278 | 118.66966 | 19334 ft | 391 kts | 355° |
| 2026-04-21 23:08 | -22.20569 | 118.66896 | 18809 ft | 390 kts | 355° |
| 2026-04-21 23:08 | -22.17853 | 118.66827 | 18269 ft | 389 kts | 355° |
| 2026-04-21 23:08 | -22.15141 | 118.66757 | 17730 ft | 388 kts | 355° |
| 2026-04-21 23:08 | -22.12428 | 118.66689 | 17194 ft | 387 kts | 356° |
| 2026-04-21 23:09 | -22.09764 | 118.66618 | 16681 ft | 386 kts | 356° |
| 2026-04-21 23:09 | -22.07069 | 118.66549 | 16150 ft | 385 kts | 356° |
| 2026-04-21 23:09 | -22.04415 | 118.66482 | 15635 ft | 383 kts | 356° |
| 2026-04-21 23:09 | -22.01733 | 118.66413 | 15106 ft | 381 kts | 357° |
| 2026-04-21 23:10 | -21.99086 | 118.66345 | 14576 ft | 380 kts | 357° |
| 2026-04-21 23:10 | -21.96452 | 118.66277 | 14040 ft | 379 kts | 357° |
| 2026-04-21 23:10 | -21.93792 | 118.66210 | 13507 ft | 377 kts | 358° |
| 2026-04-21 23:10 | -21.91182 | 118.66143 | 12972 ft | 376 kts | 358° |
| 2026-04-21 23:11 | -21.88566 | 118.66077 | 12450 ft | 374 kts | 358° |
| 2026-04-21 23:11 | -21.85985 | 118.66011 | 11946 ft | 371 kts | 359° |
| 2026-04-21 23:11 | -21.83405 | 118.65945 | 11439 ft | 369 kts | 359° |
| 2026-04-21 23:11 | -21.80824 | 118.65879 | 10925 ft | 366 kts | 359° |
| 2026-04-21 23:12 | -21.78329 | 118.65815 | 10621 ft | 358 kts | 359° |
| 2026-04-21 23:12 | -21.75848 | 118.65752 | 10406 ft | 346 kts | 360° |
| 2026-04-21 23:12 | -21.73473 | 118.65693 | 10274 ft | 334 kts | 360° |
| 2026-04-21 23:12 | -21.71220 | 118.65636 | 10140 ft | 317 kts | 0° |
| 2026-04-21 23:13 | -21.69077 | 118.65581 | 9934 ft | 301 kts | 0° |
| 2026-04-21 23:13 | -21.66988 | 118.65527 | 9587 ft | 296 kts | 0° |
| 2026-04-21 23:13 | -21.64935 | 118.65475 | 9296 ft | 291 kts | 0° |
| 2026-04-21 23:13 | -21.62927 | 118.65423 | 8885 ft | 283 kts | 1° |
| 2026-04-21 23:14 | -21.61009 | 118.65374 | 8471 ft | 275 kts | 1° |
| 2026-04-21 23:14 | -21.59088 | 118.65326 | 8100 ft | 274 kts | 1° |
| 2026-04-21 23:14 | -21.57192 | 118.65279 | 7834 ft | 270 kts | 1° |
| 2026-04-21 23:14 | -21.55325 | 118.65231 | 7584 ft | 266 kts | 1° |
| 2026-04-21 23:15 | -21.53471 | 118.65184 | 7342 ft | 262 kts | 1° |
| 2026-04-21 23:15 | -21.51684 | 118.65139 | 6994 ft | 256 kts | 1° |
| 2026-04-21 23:15 | -21.49920 | 118.65094 | 6608 ft | 251 kts | 1° |
| 2026-04-21 23:15 | -21.48178 | 118.65050 | 6260 ft | 245 kts | 1° |
| 2026-04-21 23:16 | -21.46493 | 118.65008 | 5851 ft | 240 kts | 1° |
| 2026-04-21 23:16 | -21.44822 | 118.64966 | 5501 ft | 236 kts | 1° |
| 2026-04-21 23:16 | -21.43203 | 118.64926 | 5273 ft | 232 kts | 1° |
| 2026-04-21 23:16 | -21.41603 | 118.64886 | 5078 ft | 228 kts | 1° |
| 2026-04-21 23:17 | -21.40023 | 118.64847 | 4884 ft | 224 kts | 1° |
| 2026-04-21 23:17 | -21.38481 | 118.64808 | 4634 ft | 220 kts | 1° |
| 2026-04-21 23:17 | -21.36964 | 118.64771 | 4301 ft | 216 kts | 1° |
| 2026-04-21 23:17 | -21.35476 | 118.64733 | 3963 ft | 211 kts | 1° |
| 2026-04-21 23:18 | -21.34013 | 118.64697 | 3622 ft | 208 kts | 1° |
| 2026-04-21 23:18 | -21.32572 | 118.64661 | 3362 ft | 204 kts | 1° |
| 2026-04-21 23:18 | -21.31141 | 118.64626 | 3254 ft | 205 kts | 1° |
| 2026-04-21 23:18 | -21.29722 | 118.64591 | 3090 ft | 204 kts | 1° |
| 2026-04-21 23:19 | -21.28331 | 118.64555 | 2964 ft | 194 kts | 1° |
| 2026-04-21 23:19 | -21.27014 | 118.64583 | 2842 ft | 181 kts | 13° |
| 2026-04-21 23:19 | -21.25947 | 118.65133 | 2808 ft | 160 kts | 40° |
| 2026-04-21 23:19 | -21.25198 | 118.65920 | 2700 ft | 144 kts | 46° |
| 2026-04-21 23:20 | -21.24522 | 118.66691 | 2344 ft | 144 kts | 47° |
| 2026-04-21 23:20 | -21.23834 | 118.67477 | 2090 ft | 143 kts | 47° |
| 2026-04-21 23:20 | -21.23153 | 118.68250 | 2049 ft | 141 kts | 47° |
| 2026-04-21 23:20 | -21.22473 | 118.69019 | 2016 ft | 139 kts | 47° |
| 2026-04-21 23:21 | -21.21812 | 118.69767 | 2011 ft | 139 kts | 50° |
| 2026-04-21 23:21 | -21.21340 | 118.70662 | 2003 ft | 139 kts | 72° |
| 2026-04-21 23:21 | -21.21245 | 118.71694 | 2000 ft | 140 kts | 94° |
| 2026-04-21 23:21 | -21.21529 | 118.72694 | 2002 ft | 140 kts | 111° |
| 2026-04-21 23:22 | -21.21955 | 118.73619 | 1998 ft | 139 kts | 114° |
| 2026-04-21 23:22 | -21.22399 | 118.74545 | 2001 ft | 138 kts | 114° |
| 2026-04-21 23:22 | -21.22840 | 118.75471 | 2005 ft | 138 kts | 114° |
| 2026-04-21 23:22 | -21.23272 | 118.76388 | 2007 ft | 138 kts | 113° |
| 2026-04-21 23:23 | -21.23711 | 118.77317 | 2006 ft | 138 kts | 113° |
| 2026-04-21 23:23 | -21.24151 | 118.78231 | 1924 ft | 138 kts | 114° |
| 2026-04-21 23:23 | -21.24591 | 118.79146 | 1829 ft | 138 kts | 113° |
| 2026-04-21 23:23 | -21.25010 | 118.80069 | 1656 ft | 138 kts | 111° |
| 2026-04-21 23:24 | -21.25421 | 118.81007 | 1539 ft | 138 kts | 112° |
| 2026-04-21 23:24 | -21.25834 | 118.81924 | 1419 ft | 137 kts | 113° |
| 2026-04-21 23:24 | -21.26264 | 118.82845 | 1297 ft | 137 kts | 114° |
| 2026-04-21 23:24 | -21.26688 | 118.83766 | 1146 ft | 137 kts | 113° |
| 2026-04-21 23:25 | -21.27111 | 118.84670 | 1024 ft | 136 kts | 114° |
| 2026-04-21 23:25 | -21.27525 | 118.85583 | 884 ft | 136 kts | 114° |
| 2026-04-21 23:25 | -21.27945 | 118.86488 | 743 ft | 135 kts | 114° |
| 2026-04-21 23:25 | -21.28354 | 118.87376 | 674 ft | 126 kts | 115° |
| 2026-04-21 23:26 | -21.28676 | 118.88077 | 672 ft | 79 kts | 117° |
| 2026-04-21 23:26 | -21.28858 | 118.88459 | 672 ft | 34 kts | 116° |
| 2026-04-21 23:26 | -21.28885 | 118.88516 | 672 ft | 1 kts | 76° |
| 2026-04-21 23:26 | -21.28873 | 118.88498 | 672 ft | 5 kts | 288° |
| 2026-04-21 23:27 | -21.28852 | 118.88447 | 672 ft | 13 kts | 295° |
| 2026-04-21 23:27 | -21.28788 | 118.88313 | 672 ft | 24 kts | 297° |
| 2026-04-21 23:27 | -21.28693 | 118.88251 | 671 ft | 16 kts | 20° |
| 2026-04-21 23:27 | -21.28652 | 118.88274 | 671 ft | 6 kts | 45° |
| 2026-04-21 23:28 | -21.28654 | 118.88308 | 671 ft | 6 kts | 113° |
| 2026-04-21 23:28 | -21.28657 | 118.88346 | 671 ft | 4 kts | 39° |
| 2026-04-21 23:28 | -21.28643 | 118.88353 | 671 ft | 1 kts | 23° |